Time;durP1;ratioP1;P1;durP2;ratioP2;P2;SDS_P1;SDS_P2;PMS_P1;PMS_P2;Temp;Humidity;BMP_temperature;BMP_pressure;BME280_temperature;BME280_humidity;BME280_pressure;Samples;Min_cycle;Max_cycle;Signal;HPM_P1;HPM_P2
2021/09/09 00:00:26;;;;;;;9.93;6.00;;;;;;;24.16;40.15;99170.53;5017279;28;20107;-73
2021/09/09 00:02:53;;;;;;;10.07;5.93;;;;;;;24.45;39.12;99171.06;5001325;28;20041;-73
2021/09/09 00:05:20;;;;;;;10.65;5.65;;;;;;;24.89;38.20;99159.75;5017305;28;20635;-73
2021/09/09 00:07:46;;;;;;;10.48;5.95;;;;;;;24.13;39.79;99178.34;5000932;28;20052;-71
2021/09/09 00:10:13;;;;;;;11.00;5.93;;;;;;;24.78;38.78;99171.66;5017159;28;20083;-71
2021/09/09 00:12:40;;;;;;;8.18;5.85;;;;;;;24.65;39.10;99152.22;5033644;28;20049;-71
2021/09/09 00:15:06;;;;;;;7.20;5.65;;;;;;;24.71;39.17;99168.31;5033581;28;20076;-74
2021/09/09 00:17:33;;;;;;;9.75;5.93;;;;;;;24.83;38.27;99160.81;5034217;28;20051;-72
2021/09/09 00:19:59;;;;;;;8.07;5.95;;;;;;;24.47;38.87;99144.47;5016897;28;20144;-72
2021/09/09 00:22:25;;;;;;;11.45;5.50;;;;;;;24.77;38.19;99153.69;5033387;28;20045;-73
2021/09/09 00:24:52;;;;;;;11.02;5.55;;;;;;;24.63;38.35;99157.91;5000790;28;20051;-73
2021/09/09 00:27:17;;;;;;;7.57;5.22;;;;;;;24.84;38.00;99151.59;5016757;28;20053;-73
2021/09/09 00:29:43;;;;;;;9.00;5.38;;;;;;;24.96;37.92;99155.97;5033220;28;20053;-74
2021/09/09 00:32:11;;;;;;;10.00;5.47;;;;;;;24.78;38.09;99155.34;5033454;28;20052;-73
2021/09/09 00:34:37;;;;;;;14.05;6.22;;;;;;;24.84;38.01;99153.47;5017241;28;20049;-72
2021/09/09 00:37:03;;;;;;;7.68;5.15;;;;;;;24.82;38.15;99151.03;5017133;28;20084;-72
2021/09/09 00:39:30;;;;;;;9.75;5.75;;;;;;;24.65;38.50;99154.94;5017010;28;20045;-72
2021/09/09 00:41:55;;;;;;;9.75;5.78;;;;;;;24.88;37.72;99155.41;5033222;28;20135;-72
2021/09/09 00:44:27;;;;;;;11.07;5.80;;;;;;;25.14;37.42;99158.28;5019853;28;20556;-71
2021/09/09 00:47:01;;;;;;;7.18;5.63;;;;;;;25.55;37.02;99166.41;5023091;28;20516;-74
2021/09/09 00:49:27;;;;;;;12.05;5.20;;;;;;;24.84;37.67;99153.47;5006849;28;20044;-74
2021/09/09 00:51:53;;;;;;;8.63;5.38;;;;;;;24.51;38.52;99154.56;5039826;28;20118;-72
2021/09/09 00:54:19;;;;;;;9.63;5.57;;;;;;;25.01;37.51;99150.59;5039648;28;20041;-72
2021/09/09 00:56:45;;;;;;;8.50;5.22;;;;;;;24.70;37.95;99152.28;5023194;28;20250;-72
2021/09/09 00:59:11;;;;;;;8.65;5.70;;;;;;;24.76;37.72;99157.50;5006680;28;20041;-71
2021/09/09 01:01:36;;;;;;;9.30;5.28;;;;;;;24.50;37.81;99117.63;5007094;28;20052;-72
2021/09/09 01:04:03;;;;;;;5.97;4.88;;;;;;;25.11;37.54;99147.94;5057326;28;20492;-72
2021/09/09 01:06:29;;;;;;;7.93;5.15;;;;;;;24.85;37.50;99152.38;5056478;28;20052;-72
2021/09/09 01:08:54;;;;;;;9.88;5.40;;;;;;;24.70;37.72;99147.69;5039862;28;20044;-72
2021/09/09 01:11:20;;;;;;;6.97;5.63;;;;;;;25.03;37.03;99151.16;5023395;28;20048;-73
2021/09/09 01:13:50;;;;;;;9.90;5.50;;;;;;;25.47;36.61;99161.47;5056462;28;20043;-73
2021/09/09 01:16:16;;;;;;;11.00;5.57;;;;;;;25.16;36.77;99151.50;5040086;28;20522;-73
2021/09/09 01:18:42;;;;;;;6.78;5.07;;;;;;;25.16;36.82;99147.94;5040021;28;20040;-74
2021/09/09 01:21:09;;;;;;;14.70;5.47;;;;;;;25.03;37.14;99143.00;5023089;28;20496;-73
2021/09/09 01:23:36;;;;;;;13.40;5.63;;;;;;;25.01;37.08;99137.00;5039591;28;20131;-73
2021/09/09 01:26:04;;;;;;;11.18;5.10;;;;;;;25.00;37.24;99136.19;5039447;28;20064;-73
2021/09/09 01:28:30;;;;;;;7.43;5.05;;;;;;;25.01;37.10;99137.00;5039150;28;20052;-74
2021/09/09 01:30:56;;;;;;;8.65;5.13;;;;;;;24.72;37.50;99133.84;5022952;28;20049;-73
2021/09/09 01:33:21;;;;;;;7.93;5.10;;;;;;;24.71;37.72;99127.59;5022915;28;20048;-73
2021/09/09 01:35:49;;;;;;;11.27;5.25;;;;;;;24.96;37.15;99131.53;5022997;28;20505;-75
2021/09/09 01:38:22;;;;;;;8.35;5.45;;;;;;;25.33;36.51;99130.41;5006573;28;20136;-73
2021/09/09 01:40:48;;;;;;;8.77;5.28;;;;;;;24.70;37.80;99131.38;5056023;28;20041;-74
2021/09/09 01:43:14;;;;;;;6.50;5.15;;;;;;;24.92;37.37;99134.78;5022753;28;20132;-73
2021/09/09 01:45:40;;;;;;;10.20;5.15;;;;;;;24.75;37.25;99127.88;5023036;28;20131;-73
2021/09/09 01:48:06;;;;;;;8.95;5.30;;;;;;;24.84;37.01;99135.28;5022614;28;20047;-74
2021/09/09 01:50:32;;;;;;;9.75;5.22;;;;;;;24.72;37.35;99131.13;5039305;28;20516;-73
2021/09/09 01:52:57;;;;;;;7.78;5.18;;;;;;;24.79;37.34;99135.25;5039231;28;20079;-73
2021/09/09 01:55:23;;;;;;;9.15;5.05;;;;;;;24.53;37.34;99132.56;5020543;28;20139;-72
2021/09/09 01:57:49;;;;;;;6.75;5.28;;;;;;;24.73;37.07;99125.44;5035964;28;20135;-73
2021/09/09 02:00:15;;;;;;;9.32;5.00;;;;;;;25.03;37.07;99126.69;5003037;28;20091;-73
2021/09/09 02:02:42;;;;;;;6.65;4.90;;;;;;;24.86;37.38;99140.47;5019846;28;20404;-73
2021/09/09 02:05:09;;;;;;;8.70;5.35;;;;;;;24.73;37.54;99119.19;5036349;28;20393;-73
2021/09/09 02:07:34;;;;;;;10.55;4.88;;;;;;;24.89;36.97;99124.44;5003149;28;20901;-74
2021/09/09 02:10:00;;;;;;;10.30;4.97;;;;;;;24.94;36.85;99131.78;5035637;28;20044;-73
2021/09/09 02:12:26;;;;;;;9.07;5.07;;;;;;;24.73;37.33;99127.31;5035774;28;20041;-74
2021/09/09 02:14:52;;;;;;;6.50;4.55;;;;;;;24.54;37.54;99120.66;5019767;28;20084;-75
2021/09/09 02:17:18;;;;;;;8.32;5.22;;;;;;;24.65;37.49;99116.91;5019158;28;20072;-74
2021/09/09 02:19:43;;;;;;;8.48;5.35;;;;;;;24.52;37.88;99117.38;5052394;28;20094;-73
2021/09/09 02:22:09;;;;;;;8.27;4.95;;;;;;;24.46;37.73;99113.78;5035753;28;20045;-73
2021/09/09 02:24:36;;;;;;;7.40;4.78;;;;;;;24.29;38.18;99115.84;5002832;28;20041;-73
2021/09/09 02:27:02;;;;;;;8.73;4.97;;;;;;;24.64;37.47;99110.69;5018888;28;20135;-74
2021/09/09 02:29:28;;;;;;;12.02;5.03;;;;;;;24.27;38.17;99109.03;5018830;28;20044;-73
2021/09/09 02:31:53;;;;;;;9.32;4.80;;;;;;;24.11;38.76;99113.50;5018913;28;20044;-73
2021/09/09 02:34:19;;;;;;;12.50;4.75;;;;;;;24.66;37.52;99096.88;5002536;28;20044;-72
2021/09/09 02:36:45;;;;;;;8.90;5.13;;;;;;;24.54;37.79;99107.88;5035263;28;20040;-72
2021/09/09 02:39:11;;;;;;;9.75;5.28;;;;;;;24.25;38.15;99101.13;5035402;28;20425;-72
2021/09/09 02:41:37;;;;;;;9.18;5.00;;;;;;;24.52;37.94;99110.06;5051931;28;20052;-75
2021/09/09 02:44:03;;;;;;;12.23;5.22;;;;;;;24.69;37.47;99109.94;5018814;28;20048;-75
2021/09/09 02:46:28;;;;;;;8.15;4.50;;;;;;;24.64;37.15;99112.56;5018566;28;20052;-73
2021/09/09 02:48:54;;;;;;;10.02;5.15;;;;;;;24.80;37.01;99106.19;5018641;28;20044;-73
2021/09/09 02:51:20;;;;;;;10.75;5.05;;;;;;;25.04;36.51;99120.16;5018305;28;20049;-73
2021/09/09 02:53:46;;;;;;;9.38;5.18;;;;;;;24.77;37.32;99114.88;5018482;28;20045;-73
2021/09/09 02:56:11;;;;;;;7.00;4.75;;;;;;;24.78;36.96;99102.91;5018547;28;20110;-73
2021/09/09 02:58:37;;;;;;;8.35;4.78;;;;;;;24.18;38.11;99105.97;5034954;28;20452;-72
2021/09/09 03:01:03;;;;;;;9.23;4.85;;;;;;;24.37;38.30;99103.69;5018401;28;20516;-74
2021/09/09 03:03:29;;;;;;;11.23;5.30;;;;;;;24.68;37.35;99097.41;5018271;28;20049;-74
2021/09/09 03:05:54;;;;;;;9.65;4.95;;;;;;;24.74;37.18;99118.09;5034930;28;20080;-74
2021/09/09 03:08:20;;;;;;;6.82;4.65;;;;;;;24.62;37.39;99126.41;5034407;28;20459;-74
2021/09/09 03:10:46;;;;;;;9.95;5.20;;;;;;;24.78;37.37;99122.75;5001661;28;20041;-71
2021/09/09 03:13:12;;;;;;;7.18;4.75;;;;;;;24.72;37.01;99114.84;5017981;28;20041;-73
2021/09/09 03:15:37;;;;;;;6.50;4.80;;;;;;;24.88;36.94;99113.03;5017919;28;20047;-74
2021/09/09 03:18:03;;;;;;;6.55;4.60;;;;;;;25.00;36.94;99109.03;5034230;28;20041;-73
2021/09/09 03:20:29;;;;;;;9.40;5.00;;;;;;;24.77;37.05;99115.66;5017086;28;20509;-75
2021/09/09 03:22:55;;;;;;;8.68;4.90;;;;;;;24.61;37.31;99110.38;5016415;28;20049;-74
2021/09/09 03:25:21;;;;;;;9.57;5.03;;;;;;;25.08;36.73;99113.94;5050546;28;20055;-74
2021/09/09 03:27:47;;;;;;;10.63;5.05;;;;;;;25.12;36.44;99115.06;5049146;28;20056;-71
2021/09/09 03:30:13;;;;;;;6.82;4.75;;;;;;;24.97;36.97;99131.25;5016373;28;20052;-72
2021/09/09 03:32:38;;;;;;;9.75;5.07;;;;;;;24.77;36.82;99107.53;5049184;28;20417;-73
2021/09/09 03:35:05;;;;;;;8.38;4.75;;;;;;;24.75;37.10;99125.16;5032421;28;20491;-74
2021/09/09 03:37:30;;;;;;;7.47;4.50;;;;;;;24.91;36.83;99121.44;5033973;28;20044;-75
2021/09/09 03:39:56;;;;;;;8.68;4.97;;;;;;;24.92;36.63;99117.69;5017347;28;20045;-74
2021/09/09 03:42:22;;;;;;;9.55;4.70;;;;;;;25.29;36.35;99123.84;5033644;28;20052;-73
2021/09/09 03:44:48;;;;;;;5.72;4.55;;;;;;;24.79;37.11;99126.28;5000938;28;20404;-72
2021/09/09 03:47:14;;;;;;;8.45;5.20;;;;;;;25.17;36.29;99130.56;5033841;28;20135;-73
2021/09/09 03:49:40;;;;;;;7.88;4.50;;;;;;;25.18;36.16;99137.63;5033542;28;20041;-73
2021/09/09 03:52:06;;;;;;;6.65;4.47;;;;;;;24.82;36.65;99133.91;5033574;28;20092;-73
2021/09/09 03:54:32;;;;;;;6.75;4.70;;;;;;;25.26;36.25;99135.25;5000736;28;20091;-73
2021/09/09 03:56:58;;;;;;;8.18;4.00;;;;;;;25.39;35.99;99140.22;5000663;28;20044;-73
2021/09/09 03:59:23;;;;;;;6.68;4.30;;;;;;;25.22;36.08;99139.56;5016849;28;20131;-73
2021/09/09 04:01:49;;;;;;;7.50;4.13;;;;;;;25.14;36.09;99129.19;5000547;28;20041;-68
2021/09/09 04:04:15;;;;;;;10.25;4.60;;;;;;;25.40;35.83;99139.13;5033597;28;20055;-68
2021/09/09 04:06:41;;;;;;;9.55;4.50;;;;;;;25.29;36.04;99142.88;5039668;28;20063;-69
2021/09/09 04:09:06;;;;;;;9.05;4.18;;;;;;;24.76;36.83;99130.34;5057089;28;20403;-69
2021/09/09 04:11:32;;;;;;;6.28;3.85;;;;;;;24.66;36.98;99143.03;5025975;28;20040;-69
2021/09/09 04:13:58;;;;;;;7.68;4.65;;;;;;;25.57;35.60;99158.78;5027182;28;20041;-68
2021/09/09 04:16:24;;;;;;;6.15;3.92;;;;;;;25.52;35.34;99152.50;5043306;28;20063;-68
2021/09/09 04:18:50;;;;;;;7.68;4.60;;;;;;;25.71;35.25;99154.47;5006883;28;20531;-67
2021/09/09 04:21:15;;;;;;;10.00;4.65;;;;;;;25.58;35.08;99165.88;5056926;28;20039;-67
2021/09/09 04:23:41;;;;;;;7.68;4.30;;;;;;;25.59;35.49;99151.19;5033586;28;20389;-67
2021/09/09 04:26:07;;;;;;;9.40;4.50;;;;;;;25.71;35.36;99143.59;5058549;28;20479;-67
2021/09/09 04:28:33;;;;;;;12.30;4.60;;;;;;;25.53;35.42;99156.84;5058555;28;20045;-66
2021/09/09 04:30:59;;;;;;;5.95;4.57;;;;;;;25.69;35.18;99153.94;5058630;28;20036;-66
2021/09/09 04:33:24;;;;;;;5.82;4.22;;;;;;;25.70;34.84;99168.34;5028133;28;20071;-66
2021/09/09 04:35:50;;;;;;;9.52;4.53;;;;;;;25.62;35.21;99164.25;5047155;28;20036;-68
2021/09/09 04:38:16;;;;;;;6.20;4.53;;;;;;;26.01;34.59;99160.06;5057079;28;20051;-69
2021/09/09 04:40:42;;;;;;;8.02;4.10;;;;;;;25.90;34.88;99163.78;5019172;28;20515;-67
2021/09/09 04:43:07;;;;;;;9.75;4.78;;;;;;;25.98;34.58;99162.44;5051525;28;20051;-68
2021/09/09 04:45:33;;;;;;;8.25;5.05;;;;;;;25.37;35.29;99164.13;5052220;28;20044;-67
2021/09/09 04:48:00;;;;;;;6.38;4.40;;;;;;;25.54;35.55;99163.97;5035410;28;20037;-66
2021/09/09 04:50:27;;;;;;;12.43;3.97;;;;;;;25.92;34.79;99166.25;5051552;28;20071;-66
2021/09/09 04:52:53;;;;;;;9.90;4.93;;;;;;;26.09;34.56;99172.31;5043965;28;20044;-67
2021/09/09 04:55:18;;;;;;;8.00;4.57;;;;;;;26.08;34.62;99167.94;5030358;28;20063;-67
2021/09/09 04:57:44;;;;;;;9.93;4.50;;;;;;;26.01;34.51;99167.38;5030391;28;20044;-67
2021/09/09 05:00:10;;;;;;;9.60;4.68;;;;;;;25.97;35.00;99167.06;5031372;28;20041;-67
2021/09/09 05:02:36;;;;;;;11.73;4.50;;;;;;;26.07;34.82;99164.41;5049000;28;20041;-67
2021/09/09 05:05:03;;;;;;;11.65;4.85;;;;;;;26.05;34.65;99152.97;5032606;28;20048;-67
2021/09/09 05:07:28;;;;;;;7.18;4.65;;;;;;;26.24;34.39;99164.16;5032528;28;20481;-67
2021/09/09 05:09:54;;;;;;;8.80;4.55;;;;;;;25.85;34.96;99136.56;5014846;28;20124;-68
2021/09/09 05:12:20;;;;;;;9.23;4.88;;;;;;;25.93;34.65;99157.81;5029989;28;20074;-67
2021/09/09 05:14:46;;;;;;;6.65;4.28;;;;;;;25.44;35.59;99156.56;4998291;28;20102;-68
2021/09/09 05:17:12;;;;;;;7.68;4.50;;;;;;;25.84;35.27;99143.09;5030965;28;20048;-68
2021/09/09 05:19:37;;;;;;;9.32;4.53;;;;;;;26.00;35.00;99157.59;5030476;28;20055;-68
2021/09/09 05:22:03;;;;;;;10.25;4.63;;;;;;;26.23;34.38;99148.91;5030695;28;20052;-68
2021/09/09 05:24:29;;;;;;;13.75;4.93;;;;;;;25.67;35.33;99163.44;5031452;28;20052;-68
2021/09/09 05:26:55;;;;;;;7.78;4.20;;;;;;;26.09;34.59;99162.22;5015670;28;20565;-68
2021/09/09 05:29:22;;;;;;;8.68;5.13;;;;;;;26.18;34.48;99154.34;4999337;28;20045;-67
2021/09/09 05:31:49;;;;;;;10.10;4.68;;;;;;;26.17;34.70;99150.81;5019449;28;20044;-67
2021/09/09 05:34:14;;;;;;;8.18;5.40;;;;;;;25.93;35.03;99160.53;5052782;28;20045;-68
2021/09/09 05:36:40;;;;;;;8.98;4.65;;;;;;;26.13;34.73;99165.22;5019663;28;20053;-68
2021/09/09 05:39:06;;;;;;;9.23;4.68;;;;;;;26.18;34.71;99160.63;5052269;28;20523;-68
2021/09/09 05:41:32;;;;;;;9.18;4.55;;;;;;;26.13;34.60;99168.78;5002999;28;20084;-67
2021/09/09 05:43:57;;;;;;;7.32;4.45;;;;;;;25.89;35.04;99164.88;5035798;28;20060;-68
2021/09/09 05:46:23;;;;;;;9.38;4.65;;;;;;;26.06;34.74;99164.69;5052273;28;20090;-67
2021/09/09 05:48:49;;;;;;;7.60;4.20;;;;;;;26.01;34.95;99168.22;5019049;28;20044;-68
2021/09/09 05:51:15;;;;;;;7.82;4.50;;;;;;;26.06;34.91;99172.84;5030815;28;20894;-68
2021/09/09 05:53:41;;;;;;;7.32;4.60;;;;;;;25.87;35.15;99164.34;5035707;28;20037;-68
2021/09/09 05:56:06;;;;;;;6.90;4.65;;;;;;;26.08;35.19;99168.75;5035453;28;20098;-68
2021/09/09 05:58:32;;;;;;;10.98;4.47;;;;;;;26.13;34.99;99157.88;5019300;28;20417;-68
2021/09/09 06:00:58;;;;;;;11.25;6.05;;;;;;;26.16;35.12;99162.78;5018968;28;20075;-68
2021/09/09 06:03:26;;;;;;;8.85;4.80;;;;;;;26.36;34.57;99165.53;5053474;28;20041;-68
2021/09/09 06:06:01;;;;;;;9.73;4.50;;;;;;;25.96;35.20;99157.28;5019131;28;20049;-68
2021/09/09 06:08:27;;;;;;;9.95;4.70;;;;;;;25.76;35.78;99162.66;5052145;28;20045;-68
2021/09/09 06:10:55;;;;;;;9.80;5.20;;;;;;;26.19;34.83;99162.25;5018895;28;20053;-68
2021/09/09 06:13:20;;;;;;;8.38;4.70;;;;;;;26.17;35.15;99164.41;5002688;28;20408;-68
2021/09/09 06:15:46;;;;;;;10.32;4.55;;;;;;;26.52;34.44;99154.66;5002697;28;20044;-69
2021/09/09 06:18:12;;;;;;;7.60;4.50;;;;;;;26.87;33.91;99171.81;5002247;28;20048;-68
2021/09/09 06:20:38;;;;;;;10.32;4.47;;;;;;;26.91;33.35;99123.03;5052132;28;20178;-69
2021/09/09 06:23:03;;;;;;;9.85;4.35;;;;;;;27.23;33.27;99161.66;5052512;28;20045;-70
2021/09/09 06:25:29;;;;;;;9.35;4.90;;;;;;;27.19;33.27;99166.84;5018637;28;20048;-69
2021/09/09 06:27:55;;;;;;;9.45;4.70;;;;;;;27.12;33.43;99168.22;5051252;28;20080;-69
2021/09/09 06:30:20;;;;;;;12.52;5.20;;;;;;;26.72;33.99;99155.50;5018175;28;20060;-68
2021/09/09 06:32:46;;;;;;;8.15;4.93;;;;;;;27.13;33.67;99167.13;5034887;28;20037;-68
2021/09/09 06:35:12;;;;;;;7.90;4.63;;;;;;;27.36;32.75;99161.09;5018520;28;20052;-69
2021/09/09 06:37:39;;;;;;;9.35;4.35;;;;;;;27.35;33.37;99151.28;5034915;28;20052;-68
2021/09/09 06:40:06;;;;;;;7.60;4.50;;;;;;;27.79;32.87;99161.19;5050966;28;20067;-68
2021/09/09 06:42:31;;;;;;;8.40;4.53;;;;;;;27.11;33.09;99177.50;5017678;28;20167;-68
2021/09/09 06:44:57;;;;;;;8.43;4.50;;;;;;;27.26;33.38;99161.94;5051180;28;20540;-68
2021/09/09 06:47:23;;;;;;;7.38;4.63;;;;;;;27.48;32.93;99167.88;5051293;28;20532;-69
2021/09/09 06:49:49;;;;;;;11.73;4.05;;;;;;;27.32;33.67;99155.41;5051232;28;20106;-68
2021/09/09 06:52:15;;;;;;;6.63;4.10;;;;;;;27.64;32.84;99174.09;5034460;28;20426;-68
2021/09/09 06:54:42;;;;;;;10.52;5.10;;;;;;;27.65;33.18;99165.63;5034633;28;20040;-68
2021/09/09 06:57:08;;;;;;;9.93;4.35;;;;;;;27.65;32.71;99167.53;5050787;28;20420;-68
2021/09/09 06:59:33;;;;;;;8.95;4.43;;;;;;;27.19;33.52;99171.47;5017858;28;20037;-68
2021/09/09 07:01:59;;;;;;;10.43;5.35;;;;;;;27.52;32.94;99177.13;5017554;28;20420;-68
2021/09/09 07:04:25;;;;;;;9.02;4.10;;;;;;;27.73;32.76;99175.13;5017790;28;20098;-68
2021/09/09 07:06:51;;;;;;;8.02;4.55;;;;;;;27.89;32.47;99180.25;5051216;28;20132;-68
2021/09/09 07:09:16;;;;;;;8.73;4.60;;;;;;;27.94;32.79;99184.88;5017596;28;20367;-69
2021/09/09 07:11:42;;;;;;;10.05;4.55;;;;;;;28.05;32.32;99180.19;5018018;28;20067;-68
2021/09/09 07:14:08;;;;;;;12.07;4.85;;;;;;;27.54;33.04;99180.38;5033893;28;20143;-69
2021/09/09 07:16:34;;;;;;;10.98;4.50;;;;;;;27.52;33.32;99177.13;5017771;28;20622;-68
2021/09/09 07:19:00;;;;;;;14.45;6.88;;;;;;;27.92;32.72;99189.81;5017453;28;20047;-69
2021/09/09 07:21:25;;;;;;;7.90;4.45;;;;;;;27.71;33.12;99186.31;5017963;28;20127;-68
2021/09/09 07:23:51;;;;;;;9.20;4.50;;;;;;;27.88;32.94;99191.44;5034291;28;20087;-67
2021/09/09 07:26:17;;;;;;;8.77;4.40;;;;;;;28.05;32.52;99185.66;5050594;28;20424;-68
2021/09/09 07:28:43;;;;;;;9.90;4.78;;;;;;;27.95;32.72;99194.72;5017124;28;20424;-68
2021/09/09 07:31:10;;;;;;;9.63;4.47;;;;;;;28.28;32.50;99190.44;5017598;28;20069;-67
2021/09/09 07:33:36;;;;;;;12.20;4.60;;;;;;;28.28;32.21;99190.44;5051573;28;20076;-68
2021/09/09 07:36:02;;;;;;;7.20;4.22;;;;;;;28.00;32.84;99190.03;5033615;28;20049;-68
2021/09/09 07:38:28;;;;;;;9.38;4.45;;;;;;;28.25;32.51;99204.66;5051496;28;20041;-69
2021/09/09 07:40:54;;;;;;;6.38;4.35;;;;;;;28.31;32.54;99193.38;5033658;28;20459;-68
2021/09/09 07:43:20;;;;;;;10.75;4.10;;;;;;;28.29;32.40;99197.50;5033758;28;20040;-68
2021/09/09 07:45:46;;;;;;;8.07;4.32;;;;;;;28.38;32.33;99195.81;5017186;28;20084;-68
2021/09/09 07:48:12;;;;;;;9.07;4.30;;;;;;;28.60;31.93;99180.63;5016826;28;20159;-68
2021/09/09 07:50:37;;;;;;;8.25;3.83;;;;;;;28.95;31.45;99195.91;5033584;28;20098;-68
2021/09/09 07:53:03;;;;;;;7.60;4.05;;;;;;;29.13;30.88;99189.75;5032879;28;20040;-68
2021/09/09 07:55:29;;;;;;;5.82;3.85;;;;;;;28.98;31.25;99190.69;5033128;28;20041;-68
2021/09/09 07:57:55;;;;;;;9.43;4.00;;;;;;;29.50;30.53;99198.09;5033257;28;20036;-68
2021/09/09 08:00:20;;;;;;;11.27;4.15;;;;;;;29.85;29.78;99183.16;5060870;28;20048;-68
2021/09/09 08:02:46;;;;;;;8.95;3.92;;;;;;;30.26;29.41;99189.75;5090328;28;20135;-68
2021/09/09 08:05:12;;;;;;;9.77;4.18;;;;;;;29.79;30.37;99196.13;5056139;28;20051;-67
2021/09/09 08:07:42;;;;;;;5.32;3.15;;;;;;;29.87;29.97;99198.22;5090001;28;20040;-68
2021/09/09 08:10:13;;;;;;;9.30;3.97;;;;;;;30.22;29.55;99188.69;5056431;28;20469;-68
2021/09/09 08:12:39;;;;;;;11.07;3.22;;;;;;;29.92;29.75;99189.13;5073258;28;20072;-67
2021/09/09 08:15:07;;;;;;;7.70;3.22;;;;;;;30.16;29.40;99201.63;5089773;28;20048;-67
2021/09/09 08:17:33;;;;;;;5.38;3.40;;;;;;;30.09;29.47;99164.78;5073218;28;20040;-68
2021/09/09 08:19:59;;;;;;;6.43;3.10;;;;;;;30.42;29.09;99193.88;5039280;28;20522;-69
2021/09/09 08:22:26;;;;;;;8.48;2.88;;;;;;;30.49;28.74;99192.38;5091010;28;20048;-75
2021/09/09 08:24:53;;;;;;;4.50;2.60;;;;;;;31.65;27.28;99182.09;5073129;28;20054;-68
2021/09/09 08:27:19;;;;;;;12.52;2.95;;;;;;;32.72;25.69;99197.53;5089627;28;20048;-68
2021/09/09 08:29:45;;;;;;;8.35;2.78;;;;;;;32.78;25.54;99195.47;5055889;28;20050;-68
2021/09/09 08:32:10;;;;;;;8.23;2.60;;;;;;;32.26;25.68;99188.72;5072463;28;20415;-68
2021/09/09 08:34:36;;;;;;;6.28;2.90;;;;;;;32.44;25.70;99192.47;5089567;28;20055;-68
2021/09/09 08:37:02;;;;;;;6.45;3.00;;;;;;;32.25;26.02;99187.09;5089364;28;20161;-68
2021/09/09 08:39:28;;;;;;;10.55;2.75;;;;;;;32.32;25.75;99172.94;5072394;28;20036;-68
2021/09/09 08:41:54;;;;;;;4.15;2.35;;;;;;;31.84;25.90;99191.88;5056339;28;20051;-68
2021/09/09 08:44:19;;;;;;;6.63;2.33;;;;;;;33.30;24.87;99189.16;5072911;28;20040;-68
2021/09/09 08:46:46;;;;;;;5.57;2.30;;;;;;;34.11;23.74;99187.66;5072627;28;20051;-68
2021/09/09 08:49:11;;;;;;;4.38;2.40;;;;;;;33.89;23.32;99176.78;5072155;28;20035;-68
2021/09/09 08:51:37;;;;;;;9.50;2.70;;;;;;;33.55;23.77;99188.47;5072688;28;20047;-68
2021/09/09 08:54:04;;;;;;;5.82;2.67;;;;;;;33.55;24.39;99185.72;5055486;28;20048;-68
2021/09/09 08:56:30;;;;;;;3.70;2.35;;;;;;;32.75;24.92;99195.28;5089352;28;20048;-68
2021/09/09 08:58:56;;;;;;;6.80;2.65;;;;;;;32.77;25.19;99193.06;5072103;28;20472;-68
2021/09/09 09:01:22;;;;;;;8.20;2.60;;;;;;;32.74;25.54;99190.94;5039150;28;20055;-68
2021/09/09 09:03:52;;;;;;;3.53;2.35;;;;;;;32.80;25.55;99198.72;5072778;28;20047;-68
2021/09/09 09:06:27;;;;;;;3.72;2.10;;;;;;;33.37;24.83;99197.78;5092327;28;20089;-70
2021/09/09 09:09:02;;;;;;;4.07;2.30;;;;;;;33.40;24.71;99185.38;5093345;28;20139;-68
2021/09/09 09:11:45;;;;;;;4.18;2.50;;;;;;;34.62;22.68;99211.72;5059986;28;20044;-70
2021/09/09 09:14:13;;;;;;;5.30;2.78;;;;;;;34.50;23.39;99189.50;5059623;28;20421;-70
2021/09/09 09:16:54;;;;;;;4.97;2.55;;;;;;;34.51;22.87;99185.59;5093136;28;20047;-69
2021/09/09 09:19:20;;;;;;;;;;;;;;;35.30;21.90;99201.41;5077169;28;20097;-71
2021/09/09 09:21:50;;;;;;;5.88;2.90;;;;;;;35.75;22.06;99193.44;5076374;28;19927;-73
2021/09/09 09:24:19;;;;;;;6.95;2.50;;;;;;;36.33;20.55;99201.72;5075007;28;20048;-73
2021/09/09 09:27:07;;;;;;;5.28;2.70;;;;;;;36.68;20.38;99204.97;5089587;28;20193;-73
2021/09/09 09:29:33;;;;;;;3.97;2.30;;;;;;;36.30;20.56;99199.63;5072793;28;20044;-74
2021/09/09 09:32:15;;;;;;;3.50;2.45;;;;;;;35.75;21.40;99202.50;5090164;28;20074;-74
2021/09/09 09:34:42;;;;;;;6.72;2.67;;;;;;;35.83;20.73;99198.09;5072567;28;20044;-73
2021/09/09 09:37:08;;;;;;;5.07;2.30;;;;;;;35.56;21.01;99185.56;5089889;28;20518;-73
2021/09/09 09:39:34;;;;;;;6.50;2.70;;;;;;;35.15;21.56;99174.31;5074038;28;20046;-73
2021/09/09 09:42:05;;;;;;;5.57;2.85;;;;;;;34.70;22.33;99194.34;5059694;28;20522;-73
2021/09/09 09:44:36;;;;;;;7.30;2.58;;;;;;;34.74;22.68;99190.63;5093764;28;20052;-73
2021/09/09 09:47:14;;;;;;;10.70;2.92;;;;;;;34.45;23.33;99198.75;5094988;28;20044;-73
2021/09/09 09:49:42;;;;;;;5.55;2.55;;;;;;;33.45;23.61;99175.00;5059126;28;20039;-73
2021/09/09 09:52:13;;;;;;;6.15;2.90;;;;;;;32.58;25.18;99187.75;5092592;28;20097;-74
2021/09/09 09:54:48;;;;;;;8.18;3.30;;;;;;;32.32;25.62;99190.22;5075764;28;20054;-73
2021/09/09 09:57:14;;;;;;;3.50;2.10;;;;;;;32.37;25.33;99192.06;5058853;28;20040;-74
2021/09/09 09:59:40;;;;;;;8.10;2.42;;;;;;;32.37;25.27;99192.06;5092606;28;20058;-74
2021/09/09 10:02:06;;;;;;;6.57;2.75;;;;;;;31.92;26.17;99188.41;5058597;28;20043;-74
2021/09/09 10:04:31;;;;;;;5.60;2.30;;;;;;;31.51;26.53;99184.03;5042316;28;20062;-74
2021/09/09 10:06:57;;;;;;;4.88;2.53;;;;;;;31.51;26.85;99182.09;5058551;28;20511;-73
2021/09/09 10:09:23;;;;;;;5.47;2.58;;;;;;;31.58;26.81;99189.94;5075489;28;20044;-73
2021/09/09 10:11:49;;;;;;;5.13;2.55;;;;;;;31.50;26.87;99185.97;5041730;28;20442;-73
2021/09/09 10:14:21;;;;;;;8.05;2.83;;;;;;;31.75;26.43;99188.22;5078029;28;20048;-75
2021/09/09 10:16:48;;;;;;;5.22;2.90;;;;;;;31.01;27.57;99180.31;5092392;28;20131;-73
2021/09/09 10:19:23;;;;;;;5.25;2.45;;;;;;;30.94;27.95;99196.31;5058211;28;20093;-73
2021/09/09 10:21:50;;;;;;;3.85;2.60;;;;;;;30.89;28.16;99194.50;5092204;28;20048;-73
2021/09/09 10:24:19;;;;;;;7.50;3.35;;;;;;;30.97;27.82;99204.78;5091355;28;20044;-73
2021/09/09 10:26:46;;;;;;;4.13;2.67;;;;;;;31.24;27.55;99198.53;5091577;28;20526;-73
2021/09/09 10:29:44;;;;;;;11.50;2.70;;;;;;;31.75;26.89;99206.63;5074380;28;20063;-74
2021/09/09 10:32:28;;;;;;;7.45;2.58;;;;;;;31.62;27.28;99212.91;5074237;28;20048;-74
2021/09/09 10:35:16;;;;;;;6.75;2.70;;;;;;;31.05;28.20;99201.34;5058069;28;20035;-73
2021/09/09 10:37:52;;;;;;;3.67;2.22;;;;;;;31.02;28.52;99204.69;5057667;28;20795;-75
2021/09/09 10:40:37;;;;;;;3.85;2.30;;;;;;;31.08;28.44;99217.19;5074411;28;20043;-75
2021/09/09 10:43:13;;;;;;;5.97;2.55;;;;;;;30.87;28.81;99207.72;5074506;28;20048;-74
2021/09/09 10:45:44;;;;;;;4.18;2.40;;;;;;;30.79;29.20;99207.56;5057883;28;20072;-76
2021/09/09 10:48:20;;;;;;;4.18;2.03;;;;;;;30.90;28.82;99211.78;5074443;28;20071;-70
2021/09/09 10:51:02;;;;;;;5.65;2.13;;;;;;;30.69;28.66;99211.25;5073008;28;20076;-71
2021/09/09 10:53:41;;;;;;;5.80;2.00;;;;;;;30.70;29.03;99217.56;5091561;28;20044;-70
2021/09/09 10:56:19;;;;;;;3.65;2.40;;;;;;;30.63;28.99;99215.19;5073435;28;20047;-70
2021/09/09 10:58:46;;;;;;;3.95;2.08;;;;;;;30.44;28.98;99216.31;5056290;28;20048;-69
2021/09/09 11:01:12;;;;;;;2.92;2.10;;;;;;;30.53;28.68;99218.09;5057317;28;20040;-70
2021/09/09 11:03:46;;;;;;;3.83;1.70;;;;;;;30.91;28.46;99218.88;5074144;28;20479;-69
2021/09/09 11:06:17;;;;;;;3.03;1.92;;;;;;;30.68;28.76;99211.53;5073924;28;21014;-70
2021/09/09 11:08:46;;;;;;;4.38;2.17;;;;;;;30.58;29.22;99220.78;5057336;28;20415;-70
2021/09/09 11:11:30;;;;;;;2.80;2.25;;;;;;;30.88;28.71;99225.78;5090564;28;20055;-69
2021/09/09 11:14:06;;;;;;;3.92;2.47;;;;;;;30.38;29.47;99226.56;5056960;28;20071;-69
2021/09/09 11:16:37;;;;;;;3.03;2.30;;;;;;;30.46;29.57;99233.31;5090659;28;20048;-69
2021/09/09 11:19:03;;;;;;;;;;;;;;;31.01;28.77;99230.47;5057379;28;20058;-69
2021/09/09 11:21:40;;;;;;;3.60;2.38;;;;;;;30.63;29.73;99234.38;5059638;28;19926;-69
2021/09/09 11:24:11;;;;;;;3.42;2.40;;;;;;;30.64;29.46;99227.81;5073472;28;20123;-69
2021/09/09 11:26:39;;;;;;;3.55;2.40;;;;;;;30.65;29.54;99231.34;5090640;28;20070;-70
2021/09/09 11:29:06;;;;;;;7.53;2.67;;;;;;;30.66;29.54;99228.28;5067253;28;20052;-70
2021/09/09 11:31:34;;;;;;;5.78;2.75;;;;;;;30.92;29.65;99224.06;5036956;28;20044;-69